Time;durP1;ratioP1;P1;durP2;ratioP2;P2;SDS_P1;SDS_P2;PMS_P1;PMS_P2;Temp;Humidity;BMP_temperature;BMP_pressure;BME280_temperature;BME280_humidity;BME280_pressure;Samples;Min_cycle;Max_cycle;Signal;HPM_P1;HPM_P2
2023/09/10 00:00:57;;;;;;;4.72;1.92;;;;;;;;;;2586105;23;20452;-92
2023/09/10 00:01:58;;;;;;;5.07;1.83;;;;;;;;;;2572818;23;20008;-93
2023/09/10 00:02:58;;;;;;;5.05;2.20;;;;;;;;;;2594747;22;19996;-92
2023/09/10 00:04:00;;;;;;;5.03;2.13;;;;;;;;;;2580420;22;19997;-93
2023/09/10 00:05:01;;;;;;;3.13;2.25;;;;;;;;;;2598678;22;19999;-93
2023/09/10 00:06:05;;;;;;;4.80;2.05;;;;;;;;;;2580991;23;20024;-93
2023/09/10 00:07:05;;;;;;;5.30;1.65;;;;;;;;;;2574306;23;20036;-94
2023/09/10 00:08:06;;;;;;;2.08;1.85;;;;;;;;;;2570391;23;20051;-93
2023/09/10 00:09:08;;;;;;;3.20;1.80;;;;;;;;;;2560523;23;20003;-92
2023/09/10 00:10:09;;;;;;;5.18;1.98;;;;;;;;;;2574289;22;20006;-92
2023/09/10 00:11:09;;;;;;;4.32;2.10;;;;;;;;;;2582878;23;20016;-93
2023/09/10 00:12:10;;;;;;;2.90;1.90;;;;;;;;;;2566851;23;20001;-92
2023/09/10 00:13:10;;;;;;;3.72;2.03;;;;;;;;;;2574112;23;20000;-93
2023/09/10 00:14:11;;;;;;;5.03;2.30;;;;;;;;;;2570449;23;20091;-93
2023/09/10 00:15:11;;;;;;;3.53;2.08;;;;;;;;;;2570360;23;20004;-92
2023/09/10 00:16:12;;;;;;;3.28;1.90;;;;;;;;;;2586685;22;20078;-93
2023/09/10 00:17:12;;;;;;;2.67;1.70;;;;;;;;;;2570267;23;20747;-93
2023/09/10 00:18:14;;;;;;;4.03;1.73;;;;;;;;;;2562178;23;20074;-94
2023/09/10 00:19:15;;;;;;;3.90;1.67;;;;;;;;;;2570262;23;20434;-93
2023/09/10 00:20:16;;;;;;;3.42;2.30;;;;;;;;;;2578101;23;20016;-93
2023/09/10 00:21:17;;;;;;;6.20;2.00;;;;;;;;;;2558058;23;20039;-93
2023/09/10 00:22:17;;;;;;;6.82;2.20;;;;;;;;;;2557784;23;20118;-92
2023/09/10 00:23:18;;;;;;;4.28;2.13;;;;;;;;;;2570454;23;20005;-92
2023/09/10 00:24:18;;;;;;;5.30;2.03;;;;;;;;;;2581148;22;20026;-92
2023/09/10 00:25:19;;;;;;;4.35;2.20;;;;;;;;;;2582961;23;20454;-92
2023/09/10 00:26:19;;;;;;;8.07;2.42;;;;;;;;;;2564539;23;20087;-93
2023/09/10 00:27:19;;;;;;;4.97;2.35;;;;;;;;;;2557862;23;20044;-92
2023/09/10 00:28:20;;;;;;;3.60;1.73;;;;;;;;;;2563356;23;20008;-93
2023/09/10 00:29:20;;;;;;;4.43;1.90;;;;;;;;;;2564596;23;20423;-92
2023/09/10 00:30:21;;;;;;;3.55;1.88;;;;;;;;;;2563523;23;20039;-93
2023/09/10 00:31:21;;;;;;;2.53;1.70;;;;;;;;;;2576138;23;20030;-92
2023/09/10 00:32:22;;;;;;;2.72;2.00;;;;;;;;;;2582967;23;20000;-92
2023/09/10 00:33:22;;;;;;;5.60;2.08;;;;;;;;;;2576699;23;20062;-92
2023/09/10 00:34:23;;;;;;;4.20;1.90;;;;;;;;;;2582894;22;20082;-94
2023/09/10 00:35:23;;;;;;;4.40;1.88;;;;;;;;;;2570419;23;20087;-94
2023/09/10 00:36:24;;;;;;;3.05;2.00;;;;;;;;;;2570239;23;20019;-93
2023/09/10 00:37:24;;;;;;;3.28;1.67;;;;;;;;;;2570543;23;20036;-93
2023/09/10 00:38:25;;;;;;;5.40;2.20;;;;;;;;;;2563546;23;20056;-94
2023/09/10 00:39:25;;;;;;;2.80;1.90;;;;;;;;;;2557835;23;20436;-95
2023/09/10 00:40:26;;;;;;;2.72;1.92;;;;;;;;;;2570161;23;20095;-94
2023/09/10 00:41:26;;;;;;;4.25;2.00;;;;;;;;;;2570138;23;20145;-94
2023/09/10 00:42:27;;;;;;;8.05;2.00;;;;;;;;;;2557662;23;20005;-93
2023/09/10 00:43:27;;;;;;;3.67;1.90;;;;;;;;;;2565047;23;20066;-94
2023/09/10 00:44:27;;;;;;;2.75;1.70;;;;;;;;;;2570308;23;20439;-93
2023/09/10 00:45:29;;;;;;;3.38;2.03;;;;;;;;;;2562786;23;20005;-94
2023/09/10 00:46:32;;;;;;;3.83;1.80;;;;;;;;;;2558263;23;20088;-93
2023/09/10 00:47:33;;;;;;;6.82;2.55;;;;;;;;;;2557994;23;20012;-93
2023/09/10 00:48:36;;;;;;;6.55;2.00;;;;;;;;;;2566709;23;20008;-93
2023/09/10 00:49:37;;;;;;;2.88;1.75;;;;;;;;;;2570701;23;20086;-94
2023/09/10 00:50:37;;;;;;;3.65;2.17;;;;;;;;;;2570494;23;20400;-94
2023/09/10 00:51:38;;;;;;;3.85;1.98;;;;;;;;;;2587333;23;20004;-94
2023/09/10 00:52:44;;;;;;;4.53;2.10;;;;;;;;;;2582541;23;19996;-94
2023/09/10 00:53:44;;;;;;;3.35;1.67;;;;;;;;;;2582565;23;20016;-93
2023/09/10 00:54:45;;;;;;;3.85;1.90;;;;;;;;;;2566600;23;19997;-94
2023/09/10 00:55:47;;;;;;;3.40;1.70;;;;;;;;;;2582046;23;20006;-94
2023/09/10 00:56:47;;;;;;;3.17;1.80;;;;;;;;;;2583386;22;20004;-93
2023/09/10 00:57:48;;;;;;;3.97;2.35;;;;;;;;;;2570432;23;20466;-93
2023/09/10 00:58:49;;;;;;;4.32;1.80;;;;;;;;;;2569454;23;20000;-93
2023/09/10 00:59:49;;;;;;;3.72;2.00;;;;;;;;;;2570217;23;20008;-93
2023/09/10 01:00:50;;;;;;;4.00;2.20;;;;;;;;;;2570801;23;20512;-93
2023/09/10 01:01:52;;;;;;;3.00;2.10;;;;;;;;;;2570268;23;20059;-93
2023/09/10 01:02:52;;;;;;;4.55;2.03;;;;;;;;;;2570574;23;20004;-93
2023/09/10 01:03:53;;;;;;;2.90;1.88;;;;;;;;;;2570320;23;20036;-94
2023/09/10 01:04:53;;;;;;;4.38;1.95;;;;;;;;;;2582621;23;20018;-93
2023/09/10 01:05:53;;;;;;;4.25;1.80;;;;;;;;;;2582609;23;19996;-94
2023/09/10 01:06:54;;;;;;;3.95;1.73;;;;;;;;;;2570028;23;20000;-94
2023/09/10 01:07:55;;;;;;;3.42;1.80;;;;;;;;;;2558465;23;19993;-93
2023/09/10 01:08:55;;;;;;;4.15;1.80;;;;;;;;;;2582670;23;20333;-93
2023/09/10 01:09:56;;;;;;;4.15;2.25;;;;;;;;;;2570031;23;20114;-93
2023/09/10 01:11:12;;;;;;;2.53;1.73;;;;;;;;;;2569987;23;20080;-94
2023/09/10 01:12:40;;;;;;;2.97;2.25;;;;;;;;;;2581754;23;19992;-93
2023/09/10 01:13:49;;;;;;;3.45;1.90;;;;;;;;;;2584113;23;20003;-93
2023/09/10 01:14:57;;;;;;;1.80;1.60;;;;;;;;;;2582632;23;20027;-93
2023/09/10 01:16:04;;;;;;;6.43;2.53;;;;;;;;;;2571205;23;20008;-93
2023/09/10 01:17:09;;;;;;;2.35;1.73;;;;;;;;;;2136216;23;10366900;-94
2023/09/10 01:18:22;;;;;;;2.80;1.80;;;;;;;;;;2573734;23;19997;-94
2023/09/10 01:19:48;;;;;;;3.55;1.70;;;;;;;;;;2572741;23;20004;-94
2023/09/10 01:21:22;;;;;;;4.43;1.67;;;;;;;;;;2571114;23;20054;-93
2023/09/10 01:22:26;;;;;;;3.50;1.83;;;;;;;;;;2576871;23;20019;-93
2023/09/10 01:23:54;;;;;;;5.30;2.00;;;;;;;;;;2570681;23;20018;-93
2023/09/10 01:24:55;;;;;;;5.15;2.08;;;;;;;;;;2570025;23;20011;-94
2023/09/10 01:25:56;;;;;;;5.63;2.00;;;;;;;;;;2558188;23;19997;-94
2023/09/10 01:26:57;;;;;;;4.32;1.65;;;;;;;;;;2557573;23;20000;-94
2023/09/10 01:27:58;;;;;;;3.28;2.10;;;;;;;;;;2559085;23;20406;-94
2023/09/10 01:28:59;;;;;;;3.00;2.00;;;;;;;;;;2570986;23;20083;-94
2023/09/10 01:29:59;;;;;;;3.25;1.90;;;;;;;;;;2582169;23;19996;-93
2023/09/10 01:30:59;;;;;;;3.55;2.55;;;;;;;;;;2568698;23;20139;-93
2023/09/10 01:32:04;;;;;;;5.45;2.13;;;;;;;;;;2569875;23;20075;-93
2023/09/10 01:33:19;;;;;;;4.38;2.00;;;;;;;;;;2582371;23;19996;-93
2023/09/10 01:34:24;;;;;;;6.18;2.10;;;;;;;;;;2570330;23;20008;-92
2023/09/10 01:36:38;;;;;;;2.95;1.70;;;;;;;;;;2573891;22;20020;-93
2023/09/10 01:37:47;;;;;;;2.72;2.00;;;;;;;;;;2581424;23;20335;-92
2023/09/10 01:38:56;;;;;;;2.72;2.15;;;;;;;;;;2582695;23;20034;-93
2023/09/10 01:39:58;;;;;;;3.80;1.60;;;;;;;;;;2571742;23;20005;-93
2023/09/10 01:41:11;;;;;;;4.82;1.80;;;;;;;;;;2570399;23;20026;-93
2023/09/10 01:42:13;;;;;;;2.30;1.60;;;;;;;;;;2572371;23;20054;-94
2023/09/10 01:43:14;;;;;;;3.78;1.95;;;;;;;;;;2569990;23;20009;-94
2023/09/10 01:44:15;;;;;;;2.88;2.15;;;;;;;;;;2570223;23;20012;-95
2023/09/10 01:45:18;;;;;;;6.57;2.20;;;;;;;;;;2570370;23;20016;-94
2023/09/10 01:46:19;;;;;;;3.45;1.75;;;;;;;;;;2582717;23;20061;-93
2023/09/10 01:47:20;;;;;;;3.33;1.90;;;;;;;;;;2570216;23;20005;-92
2023/09/10 01:48:20;;;;;;;3.92;2.10;;;;;;;;;;2569905;23;20004;-93
2023/09/10 01:49:21;;;;;;;2.90;2.08;;;;;;;;;;2569993;23;20004;-93
2023/09/10 01:50:22;;;;;;;4.05;1.50;;;;;;;;;;2569986;23;20027;-93
2023/09/10 01:51:22;;;;;;;3.13;1.75;;;;;;;;;;2569952;23;20011;-93
2023/09/10 01:52:22;;;;;;;4.65;2.08;;;;;;;;;;2570040;23;20028;-94
2023/09/10 01:53:23;;;;;;;2.85;1.70;;;;;;;;;;2569897;23;20009;-92
2023/09/10 01:54:23;;;;;;;7.32;2.03;;;;;;;;;;2584390;23;20035;-92
2023/09/10 01:55:24;;;;;;;3.80;2.03;;;;;;;;;;2582572;23;20015;-92
2023/09/10 01:56:25;;;;;;;4.47;1.85;;;;;;;;;;2571844;23;20008;-93
2023/09/10 01:57:25;;;;;;;6.00;1.80;;;;;;;;;;2570466;23;20005;-94
2023/09/10 01:58:26;;;;;;;4.78;2.17;;;;;;;;;;2141693;23;10001340;-93
2023/09/10 01:59:26;;;;;;;3.92;2.15;;;;;;;;;;2571331;23;20501;-93
2023/09/10 02:00:26;;;;;;;6.20;2.42;;;;;;;;;;2584618;23;20003;-93
2023/09/10 02:01:27;;;;;;;3.72;2.08;;;;;;;;;;2584915;23;20015;-94
2023/09/10 02:02:27;;;;;;;3.47;1.83;;;;;;;;;;2572664;23;20001;-93
2023/09/10 02:03:28;;;;;;;4.53;1.77;;;;;;;;;;2586558;23;20157;-93
2023/09/10 02:04:28;;;;;;;5.18;1.90;;;;;;;;;;2583767;23;20035;-94
2023/09/10 02:05:28;;;;;;;5.25;1.90;;;;;;;;;;2583022;23;20350;-93
2023/09/10 02:06:30;;;;;;;3.40;2.00;;;;;;;;;;2582534;23;20026;-93
2023/09/10 02:07:30;;;;;;;5.65;2.05;;;;;;;;;;2584151;23;20350;-93
2023/09/10 02:08:30;;;;;;;5.28;2.15;;;;;;;;;;2582391;23;20038;-93
2023/09/10 02:09:31;;;;;;;4.85;2.30;;;;;;;;;;2569921;23;20379;-93
2023/09/10 02:10:32;;;;;;;5.13;2.03;;;;;;;;;;2569860;23;20012;-92
2023/09/10 02:11:33;;;;;;;3.08;1.70;;;;;;;;;;2570269;23;20458;-93
2023/09/10 02:12:34;;;;;;;3.35;2.13;;;;;;;;;;2582603;23;20008;-93
2023/09/10 02:13:34;;;;;;;3.20;1.90;;;;;;;;;;2584806;23;20006;-94
2023/09/10 02:14:35;;;;;;;5.15;2.10;;;;;;;;;;2585802;22;20038;-92
2023/09/10 02:15:36;;;;;;;3.60;2.03;;;;;;;;;;2583308;23;20004;-91
2023/09/10 02:16:36;;;;;;;4.60;2.08;;;;;;;;;;2571128;23;20047;-92
2023/09/10 02:17:37;;;;;;;5.10;2.00;;;;;;;;;;2584346;23;20012;-87
2023/09/10 02:18:37;;;;;;;4.40;1.98;;;;;;;;;;2569671;23;20051;-88
2023/09/10 02:19:37;;;;;;;4.32;1.88;;;;;;;;;;2583303;23;20011;-88
2023/09/10 02:20:38;;;;;;;2.10;1.90;;;;;;;;;;2581628;23;20032;-88
2023/09/10 02:21:38;;;;;;;3.58;1.75;;;;;;;;;;2569124;23;20213;-87
2023/09/10 02:22:39;;;;;;;6.70;2.08;;;;;;;;;;2582165;23;20438;-88
2023/09/10 02:23:43;;;;;;;3.72;2.03;;;;;;;;;;2582809;22;20166;-88
2023/09/10 02:24:49;;;;;;;6.35;2.17;;;;;;;;;;2582714;22;20107;-88
2023/09/10 02:25:51;;;;;;;3.63;1.88;;;;;;;;;;2582328;22;20004;-88
2023/09/10 02:26:52;;;;;;;5.97;2.10;;;;;;;;;;2581096;23;20465;-87
2023/09/10 02:27:52;;;;;;;6.90;2.15;;;;;;;;;;2580970;23;20083;-89
2023/09/10 02:28:52;;;;;;;8.45;1.98;;;;;;;;;;2581914;23;20089;-89
2023/09/10 02:29:53;;;;;;;3.08;1.80;;;;;;;;;;2585702;22;20027;-88
2023/09/10 02:30:53;;;;;;;4.90;2.20;;;;;;;;;;2585822;22;20044;-89
2023/09/10 02:31:54;;;;;;;7.63;2.38;;;;;;;;;;2585508;22;20430;-89
2023/09/10 02:32:55;;;;;;;5.28;2.00;;;;;;;;;;2580607;23;19996;-87
2023/09/10 02:34:00;;;;;;;8.57;2.35;;;;;;;;;;2584422;23;19988;-88
2023/09/10 02:35:01;;;;;;;3.00;2.13;;;;;;;;;;2585312;22;20011;-87
2023/09/10 02:36:02;;;;;;;5.10;2.47;;;;;;;;;;2580766;23;20065;-87
2023/09/10 02:37:03;;;;;;;4.10;1.83;;;;;;;;;;2584255;23;20358;-87
2023/09/10 02:38:04;;;;;;;4.53;2.08;;;;;;;;;;2580869;23;20020;-87
2023/09/10 02:39:04;;;;;;;4.55;2.60;;;;;;;;;;2580821;22;20000;-89
2023/09/10 02:40:07;;;;;;;3.85;2.33;;;;;;;;;;2580643;23;20496;-89
2023/09/10 02:41:07;;;;;;;4.85;2.22;;;;;;;;;;2583519;23;20006;-89
2023/09/10 02:42:08;;;;;;;4.38;2.35;;;;;;;;;;2584627;22;20007;-89
2023/09/10 02:43:08;;;;;;;4.25;2.00;;;;;;;;;;2584950;22;20305;-89
2023/09/10 02:44:09;;;;;;;6.10;2.67;;;;;;;;;;2585098;22;20433;-88
2023/09/10 02:45:11;;;;;;;4.55;2.00;;;;;;;;;;2580856;23;20004;-88
2023/09/10 02:46:11;;;;;;;4.72;2.53;;;;;;;;;;2583859;23;19999;-88
2023/09/10 02:47:11;;;;;;;4.85;2.13;;;;;;;;;;2580908;23;20006;-88
2023/09/10 02:48:12;;;;;;;5.32;2.05;;;;;;;;;;2583946;23;20075;-88
2023/09/10 02:49:12;;;;;;;4.93;2.22;;;;;;;;;;2580357;23;20861;-88
2023/09/10 02:50:12;;;;;;;3.97;1.95;;;;;;;;;;2583784;23;20011;-88
2023/09/10 02:51:13;;;;;;;5.65;3.03;;;;;;;;;;2580702;23;20012;-88
2023/09/10 02:52:13;;;;;;;4.07;2.35;;;;;;;;;;2568412;23;20011;-88
2023/09/10 02:53:14;;;;;;;3.95;1.98;;;;;;;;;;2583842;23;20099;-88
2023/09/10 02:54:15;;;;;;;5.93;2.30;;;;;;;;;;2581097;23;20008;-87
2023/09/10 02:55:16;;;;;;;3.85;2.20;;;;;;;;;;2583864;23;20035;-87
2023/09/10 02:56:17;;;;;;;3.28;2.00;;;;;;;;;;2584680;22;19996;-87
2023/09/10 02:57:17;;;;;;;2.83;2.45;;;;;;;;;;2584000;22;20146;-89
2023/09/10 02:58:18;;;;;;;4.38;1.98;;;;;;;;;;2566546;22;20026;-88
2023/09/10 02:59:23;;;;;;;3.63;2.35;;;;;;;;;;2584130;22;20074;-88
2023/09/10 03:00:26;;;;;;;5.70;2.40;;;;;;;;;;2579797;23;20019;-88
2023/09/10 03:01:27;;;;;;;4.82;2.20;;;;;;;;;;2580952;23;20035;-88
2023/09/10 03:02:27;;;;;;;2.58;1.88;;;;;;;;;;2582801;23;20011;-88
2023/09/10 03:03:28;;;;;;;4.15;1.85;;;;;;;;;;2583544;23;20438;-87
2023/09/10 03:04:28;;;;;;;3.65;2.22;;;;;;;;;;2580714;23;20003;-88
2023/09/10 03:05:32;;;;;;;3.33;1.85;;;;;;;;;;2568303;23;20350;-88
2023/09/10 03:06:33;;;;;;;3.55;2.10;;;;;;;;;;2582403;23;20004;-89
2023/09/10 03:07:33;;;;;;;3.88;1.95;;;;;;;;;;2580884;23;20039;-88
2023/09/10 03:08:35;;;;;;;4.50;2.22;;;;;;;;;;2568234;23;20381;-88
2023/09/10 03:09:36;;;;;;;3.97;1.90;;;;;;;;;;2568826;23;19997;-88
2023/09/10 03:10:36;;;;;;;6.15;2.38;;;;;;;;;;2568293;23;20028;-89
2023/09/10 03:11:38;;;;;;;2.42;1.85;;;;;;;;;;2581998;23;20453;-88
2023/09/10 03:12:38;;;;;;;4.00;1.90;;;;;;;;;;2582827;22;20003;-88
2023/09/10 03:13:40;;;;;;;3.53;2.00;;;;;;;;;;2583020;22;20000;-88
2023/09/10 03:14:40;;;;;;;3.30;2.20;;;;;;;;;;2582648;22;20008;-88
2023/09/10 03:15:41;;;;;;;3.72;1.95;;;;;;;;;;2584900;22;19996;-93
2023/09/10 03:16:42;;;;;;;2.30;1.92;;;;;;;;;;2595122;22;20010;-92
2023/09/10 03:17:42;;;;;;;5.60;2.30;;;;;;;;;;2582324;23;20433;-93
2023/09/10 03:18:44;;;;;;;6.82;2.35;;;;;;;;;;2582426;23;20004;-93
2023/09/10 03:19:45;;;;;;;2.72;1.70;;;;;;;;;;2587572;23;20053;-93
2023/09/10 03:20:45;;;;;;;3.47;2.05;;;;;;;;;;2581259;23;20092;-93
2023/09/10 03:21:47;;;;;;;4.55;2.13;;;;;;;;;;2582040;22;19995;-93
2023/09/10 03:22:47;;;;;;;3.10;2.00;;;;;;;;;;2581927;22;20012;-93
2023/09/10 03:23:48;;;;;;;2.67;2.10;;;;;;;;;;2571645;23;20031;-93
2023/09/10 03:24:48;;;;;;;2.70;2.00;;;;;;;;;;2583095;23;20028;-94
2023/09/10 03:25:49;;;;;;;3.55;2.00;;;;;;;;;;2595432;22;20007;-93
2023/09/10 03:26:49;;;;;;;4.68;2.08;;;;;;;;;;2582312;23;20004;-93
2023/09/10 03:27:49;;;;;;;5.68;2.10;;;;;;;;;;2582276;23;20000;-92
2023/09/10 03:28:50;;;;;;;4.53;2.20;;;;;;;;;;2569658;23;20458;-92
2023/09/10 03:29:50;;;;;;;2.75;2.03;;;;;;;;;;2569485;23;20004;-92
2023/09/10 03:30:56;;;;;;;3.67;2.58;;;;;;;;;;2582228;23;20007;-93
2023/09/10 03:31:56;;;;;;;3.80;2.17;;;;;;;;;;2571167;23;20005;-93
2023/09/10 03:32:57;;;;;;;3.95;1.98;;;;;;;;;;2569662;23;20526;-92
2023/09/10 03:33:57;;;;;;;4.00;2.42;;;;;;;;;;2569721;23;20000;-93
2023/09/10 03:34:58;;;;;;;5.13;2.35;;;;;;;;;;2569628;23;20110;-94
2023/09/10 03:35:58;;;;;;;3.50;2.38;;;;;;;;;;2569516;23;20413;-92
2023/09/10 03:36:58;;;;;;;6.10;2.38;;;;;;;;;;2569182;23;19992;-93
2023/09/10 03:37:59;;;;;;;6.68;2.60;;;;;;;;;;2582123;23;20027;-93
2023/09/10 03:39:00;;;;;;;4.25;2.03;;;;;;;;;;2581938;23;20093;-94
2023/09/10 03:40:01;;;;;;;2.95;2.10;;;;;;;;;;2581803;23;20000;-93
2023/09/10 03:41:01;;;;;;;4.25;1.88;;;;;;;;;;2585775;23;19992;-94
2023/09/10 03:42:02;;;;;;;4.35;2.28;;;;;;;;;;2582241;23;20007;-94
2023/09/10 03:43:03;;;;;;;5.65;2.60;;;;;;;;;;2573283;23;20373;-92
2023/09/10 03:44:04;;;;;;;4.00;2.20;;;;;;;;;;2569770;23;20028;-92
2023/09/10 03:45:05;;;;;;;4.53;2.35;;;;;;;;;;2582307;23;20450;-91
2023/09/10 03:46:05;;;;;;;4.60;2.45;;;;;;;;;;2573419;23;20001;-92
2023/09/10 03:47:05;;;;;;;9.35;2.58;;;;;;;;;;2569997;23;19996;-93
2023/09/10 03:48:06;;;;;;;6.90;3.67;;;;;;;;;;2569745;23;20153;-93
2023/09/10 03:49:06;;;;;;;3.78;2.08;;;;;;;;;;2582225;23;20438;-92
2023/09/10 03:50:07;;;;;;;4.93;3.08;;;;;;;;;;2570091;23;20352;-92
2023/09/10 03:51:07;;;;;;;5.05;2.45;;;;;;;;;;2569821;23;20007;-92
2023/09/10 03:52:19;;;;;;;3.45;2.25;;;;;;;;;;2585817;23;20015;-94
2023/09/10 03:53:22;;;;;;;4.68;2.10;;;;;;;;;;2584375;23;20069;-92
2023/09/10 03:54:22;;;;;;;4.85;1.88;;;;;;;;;;2571945;23;20027;-92
2023/09/10 03:55:23;;;;;;;5.38;2.00;;;;;;;;;;2570097;23;20402;-93
2023/09/10 03:56:23;;;;;;;5.50;2.22;;;;;;;;;;2571522;23;20080;-91
2023/09/10 03:57:23;;;;;;;4.35;2.30;;;;;;;;;;2570953;23;20020;-91
2023/09/10 03:58:24;;;;;;;6.15;2.40;;;;;;;;;;2586168;23;19996;-91
2023/09/10 03:59:24;;;;;;;3.70;2.53;;;;;;;;;;2586176;23;20071;-87
2023/09/10 04:00:26;;;;;;;7.38;2.63;;;;;;;;;;2585374;22;20307;-87
2023/09/10 04:01:26;;;;;;;6.25;2.45;;;;;;;;;;2582565;23;20015;-87
2023/09/10 04:02:28;;;;;;;6.38;2.13;;;;;;;;;;2584735;23;20374;-88
2023/09/10 04:03:29;;;;;;;2.92;2.00;;;;;;;;;;2584214;22;20306;-89
2023/09/10 04:04:29;;;;;;;4.85;2.00;;;;;;;;;;2581364;23;20035;-88
2023/09/10 04:05:30;;;;;;;3.92;2.08;;;;;;;;;;2584792;23;20007;-88
2023/09/10 04:06:30;;;;;;;4.05;2.40;;;;;;;;;;2585842;23;20035;-88
2023/09/10 04:07:30;;;;;;;6.60;2.33;;;;;;;;;;2584340;22;20018;-88
2023/09/10 04:08:31;;;;;;;3.30;2.20;;;;;;;;;;2569284;23;20474;-87
2023/09/10 04:09:38;;;;;;;5.25;2.55;;;;;;;;;;2572436;23;20083;-88
2023/09/10 04:10:41;;;;;;;4.57;2.35;;;;;;;;;;2585546;23;20004;-88
2023/09/10 04:11:41;;;;;;;4.93;2.40;;;;;;;;;;2583825;23;20058;-87
2023/09/10 04:12:42;;;;;;;3.95;2.10;;;;;;;;;;2571493;23;20525;-87
2023/09/10 04:13:44;;;;;;;5.07;2.20;;;;;;;;;;2570980;23;20000;-87
2023/09/10 04:14:44;;;;;;;3.45;2.05;;;;;;;;;;2582173;22;20008;-87
2023/09/10 04:15:45;;;;;;;4.55;2.08;;;;;;;;;;2582185;22;20300;-87
2023/09/10 04:16:45;;;;;;;4.70;2.22;;;;;;;;;;2579942;23;20004;-88
2023/09/10 04:17:46;;;;;;;6.10;2.38;;;;;;;;;;2567863;23;20373;-87
2023/09/10 04:18:46;;;;;;;4.93;2.20;;;;;;;;;;2555789;23;20087;-89
2023/09/10 04:19:46;;;;;;;5.53;2.10;;;;;;;;;;2555364;23;20100;-88
2023/09/10 04:20:47;;;;;;;5.20;2.20;;;;;;;;;;2568198;23;20088;-87
2023/09/10 04:21:47;;;;;;;6.78;2.40;;;;;;;;;;2578431;23;20471;-88
2023/09/10 04:22:48;;;;;;;3.47;1.98;;;;;;;;;;2567894;23;20085;-89
2023/09/10 04:23:49;;;;;;;5.40;2.60;;;;;;;;;;2568338;23;20004;-89
2023/09/10 04:24:49;;;;;;;3.30;2.47;;;;;;;;;;2580914;22;20004;-89
2023/09/10 04:25:50;;;;;;;4.22;2.47;;;;;;;;;;2567867;23;20007;-88
2023/09/10 04:26:51;;;;;;;6.65;2.20;;;;;;;;;;2555519;23;20059;-88
2023/09/10 04:27:51;;;;;;;4.35;2.22;;;;;;;;;;2568184;23;20468;-89
2023/09/10 04:28:52;;;;;;;5.72;2.13;;;;;;;;;;2567771;23;20015;-89
2023/09/10 04:29:54;;;;;;;5.95;2.40;;;;;;;;;;2555498;23;20104;-88
2023/09/10 04:30:54;;;;;;;5.80;2.22;;;;;;;;;;2572402;22;20012;-90
2023/09/10 04:31:56;;;;;;;5.47;2.67;;;;;;;;;;2585280;22;20438;-89
2023/09/10 04:32:57;;;;;;;3.95;2.40;;;;;;;;;;2585081;22;20006;-88
2023/09/10 04:33:57;;;;;;;5.85;2.38;;;;;;;;;;2567592;23;19992;-89
2023/09/10 04:34:58;;;;;;;4.68;2.28;;;;;;;;;;2567918;23;20459;-89
2023/09/10 04:36:01;;;;;;;3.97;2.65;;;;;;;;;;2555420;23;20115;-89
2023/09/10 04:37:04;;;;;;;5.15;2.88;;;;;;;;;;2555842;23;19997;-88
2023/09/10 04:38:04;;;;;;;9.20;2.78;;;;;;;;;;2556014;23;19994;-90
2023/09/10 04:39:11;;;;;;;5.53;2.58;;;;;;;;;;2555555;23;20447;-89
2023/09/10 04:40:11;;;;;;;3.92;2.63;;;;;;;;;;2572088;23;20023;-89
2023/09/10 04:41:11;;;;;;;5.05;3.00;;;;;;;;;;2567921;23;19992;-88
2023/09/10 04:42:12;;;;;;;5.15;2.22;;;;;;;;;;2570269;23;20052;-89
2023/09/10 04:43:12;;;;;;;3.45;2.53;;;;;;;;;;2583689;22;20101;-90
2023/09/10 04:44:13;;;;;;;4.32;2.60;;;;;;;;;;2583663;23;20051;-88
2023/09/10 04:45:13;;;;;;;4.22;2.33;;;;;;;;;;2583838;22;20083;-89
2023/09/10 04:46:13;;;;;;;3.22;2.30;;;;;;;;;;2567679;23;20038;-89
2023/09/10 04:47:14;;;;;;;4.90;2.60;;;;;;;;;;2570225;23;20058;-89
2023/09/10 04:48:14;;;;;;;5.90;2.53;;;;;;;;;;2567635;23;20465;-89
2023/09/10 04:49:15;;;;;;;3.50;2.50;;;;;;;;;;2570569;23;20076;-89
2023/09/10 04:50:15;;;;;;;5.07;2.38;;;;;;;;;;2583889;22;20004;-89
2023/09/10 04:51:15;;;;;;;5.28;2.97;;;;;;;;;;2584138;22;20095;-89
2023/09/10 04:52:16;;;;;;;5.45;2.40;;;;;;;;;;2568631;23;20011;-89
2023/09/10 04:53:17;;;;;;;5.82;2.75;;;;;;;;;;2571185;23;20008;-89
2023/09/10 04:54:17;;;;;;;3.92;2.13;;;;;;;;;;2568630;23;20009;-89
2023/09/10 04:55:18;;;;;;;8.45;2.33;;;;;;;;;;2570899;23;20035;-89
2023/09/10 04:56:18;;;;;;;5.05;2.33;;;;;;;;;;2141039;23;10000931;-89
2023/09/10 04:57:18;;;;;;;6.57;2.28;;;;;;;;;;2555685;23;20246;-89
2023/09/10 04:58:19;;;;;;;4.90;2.17;;;;;;;;;;2555840;23;20005;-89
2023/09/10 04:59:20;;;;;;;4.80;2.40;;;;;;;;;;2568545;23;20012;-89
2023/09/10 05:00:20;;;;;;;3.88;2.30;;;;;;;;;;2568066;23;20395;-90
2023/09/10 05:01:20;;;;;;;3.13;1.75;;;;;;;;;;2582939;23;20087;-88
2023/09/10 05:02:21;;;;;;;4.40;2.10;;;;;;;;;;2583998;22;20023;-88
2023/09/10 05:03:21;;;;;;;3.95;2.00;;;;;;;;;;2568321;23;20012;-88
2023/09/10 05:04:22;;;;;;;5.10;2.45;;;;;;;;;;2570699;23;20480;-88
2023/09/10 05:05:22;;;;;;;4.85;1.95;;;;;;;;;;2584079;22;20410;-89
2023/09/10 05:06:23;;;;;;;5.03;2.13;;;;;;;;;;2568166;23;20019;-88
2023/09/10 05:07:23;;;;;;;4.85;1.67;;;;;;;;;;2568589;23;20031;-88
2023/09/10 05:08:24;;;;;;;4.68;2.03;;;;;;;;;;2570640;23;20056;-88
2023/09/10 05:09:24;;;;;;;4.80;1.80;;;;;;;;;;2580824;23;20279;-88
2023/09/10 05:10:25;;;;;;;6.97;4.20;;;;;;;;;;2568411;23;20012;-88
2023/09/10 05:11:25;;;;;;;6.07;3.17;;;;;;;;;;2570445;23;20331;-88
2023/09/10 05:12:25;;;;;;;10.02;5.40;;;;;;;;;;2568044;23;20035;-87
2023/09/10 05:13:26;;;;;;;10.65;6.57;;;;;;;;;;2555841;23;20086;-88
2023/09/10 05:14:26;;;;;;;15.15;8.80;;;;;;;;;;2568135;23;20011;-87
2023/09/10 05:15:27;;;;;;;10.80;5.88;;;;;;;;;;2567948;23;20008;-88
2023/09/10 05:16:27;;;;;;;12.15;6.70;;;;;;;;;;2555890;23;20185;-87
2023/09/10 05:17:28;;;;;;;8.73;4.90;;;;;;;;;;2569355;23;20085;-89
2023/09/10 05:18:28;;;;;;;7.22;4.28;;;;;;;;;;2582959;22;20016;-89
2023/09/10 05:19:28;;;;;;;5.13;2.85;;;;;;;;;;2567991;23;20008;-89
2023/09/10 05:20:30;;;;;;;4.90;2.42;;;;;;;;;;2555897;23;20458;-88
2023/09/10 05:21:30;;;;;;;3.72;2.03;;;;;;;;;;2570149;23;20079;-88
2023/09/10 05:22:31;;;;;;;4.07;2.28;;;;;;;;;;2583434;22;20004;-88
2023/09/10 05:23:34;;;;;;;3.72;2.20;;;;;;;;;;2568321;23;20016;-89
2023/09/10 05:24:37;;;;;;;7.10;2.13;;;;;;;;;;2570168;23;20083;-88
2023/09/10 05:25:39;;;;;;;3.95;2.13;;;;;;;;;;2582616;22;20004;-88
2023/09/10 05:26:41;;;;;;;4.90;2.30;;;;;;;;;;2582295;22;20000;-88
2023/09/10 05:27:41;;;;;;;3.75;2.38;;;;;;;;;;2582702;23;19996;-87
2023/09/10 05:28:42;;;;;;;6.47;2.25;;;;;;;;;;2568191;23;20001;-89
2023/09/10 05:29:51;;;;;;;5.63;2.40;;;;;;;;;;2569295;23;20027;-90
2023/09/10 05:30:57;;;;;;;2.90;2.15;;;;;;;;;;2567915;23;20043;-89
2023/09/10 05:32:03;;;;;;;3.92;2.03;;;;;;;;;;2572931;22;19996;-89
2023/09/10 05:33:12;;;;;;;4.15;1.85;;;;;;;;;;2587253;22;19996;-89
2023/09/10 05:34:31;;;;;;;4.97;2.08;;;;;;;;;;2590741;22;20023;-88
2023/09/10 05:35:32;;;;;;;5.75;2.20;;;;;;;;;;2589701;22;20000;-89
2023/09/10 05:36:35;;;;;;;4.03;2.53;;;;;;;;;;2587215;22;20004;-88
2023/09/10 05:37:36;;;;;;;3.22;2.05;;;;;;;;;;2589505;22;19992;-87
2023/09/10 05:38:36;;;;;;;3.75;2.35;;;;;;;;;;2568361;23;20008;-89
2023/09/10 05:39:36;;;;;;;5.78;2.42;;;;;;;;;;2568924;23;20005;-89
2023/09/10 05:40:37;;;;;;;5.65;2.28;;;;;;;;;;2555939;23;20431;-88
2023/09/10 05:41:55;;;;;;;4.80;3.15;;;;;;;;;;2569534;23;20008;-88
2023/09/10 05:42:55;;;;;;;9.50;4.15;;;;;;;;;;2580939;23;19996;-88
2023/09/10 05:43:55;;;;;;;4.10;2.28;;;;;;;;;;2569052;23;20016;-88
2023/09/10 05:44:56;;;;;;;4.43;1.67;;;;;;;;;;2572196;23;20075;-88
2023/09/10 05:45:57;;;;;;;2.50;1.65;;;;;;;;;;2555826;23;20001;-88
2023/09/10 05:46:58;;;;;;;6.57;2.17;;;;;;;;;;2572226;23;20001;-87
2023/09/10 05:47:58;;;;;;;3.17;1.65;;;;;;;;;;2588670;23;20001;-89
2023/09/10 05:48:59;;;;;;;3.53;2.08;;;;;;;;;;2589620;23;20440;-88
2023/09/10 05:50:00;;;;;;;2.45;1.70;;;;;;;;;;2593017;23;20015;-87
2023/09/10 05:51:00;;;;;;;3.83;1.67;;;;;;;;;;2577148;23;20001;-87
2023/09/10 05:52:00;;;;;;;5.95;1.90;;;;;;;;;;2573459;23;19992;-87
2023/09/10 05:53:01;;;;;;;2.33;1.52;;;;;;;;;;2574189;23;19997;-89
2023/09/10 05:54:01;;;;;;;5.28;2.00;;;;;;;;;;2585602;23;20567;-88
2023/09/10 05:55:02;;;;;;;4.95;1.67;;;;;;;;;;2584926;23;20306;-88
2023/09/10 05:56:03;;;;;;;4.68;1.88;;;;;;;;;;2567338;23;20362;-87
2023/09/10 05:57:04;;;;;;;3.17;1.95;;;;;;;;;;2570872;23;20049;-89
2023/09/10 05:58:04;;;;;;;4.45;2.40;;;;;;;;;;2583726;23;20058;-89
2023/09/10 05:59:05;;;;;;;3.10;1.88;;;;;;;;;;2584090;23;20354;-88
2023/09/10 06:00:06;;;;;;;3.83;1.88;;;;;;;;;;2567024;23;20000;-87
2023/09/10 06:01:07;;;;;;;3.97;1.85;;;;;;;;;;2570722;23;20004;-89
2023/09/10 06:02:07;;;;;;;4.65;1.85;;;;;;;;;;2574472;23;20074;-89
2023/09/10 06:03:09;;;;;;;2.50;2.03;;;;;;;;;;2583560;23;19992;-87
2023/09/10 06:04:10;;;;;;;2.75;1.80;;;;;;;;;;2567037;23;20473;-89
2023/09/10 06:05:10;;;;;;;4.72;1.80;;;;;;;;;;2570119;23;20027;-87
2023/09/10 06:06:10;;;;;;;4.97;2.05;;;;;;;;;;2567160;23;19997;-87
2023/09/10 06:07:11;;;;;;;4.25;1.85;;;;;;;;;;2571219;23;19997;-86
2023/09/10 06:08:11;;;;;;;3.42;1.67;;;;;;;;;;2580897;23;20000;-87
2023/09/10 06:09:12;;;;;;;4.22;1.85;;;;;;;;;;2583413;23;20044;-87
2023/09/10 06:10:12;;;;;;;3.03;1.77;;;;;;;;;;2584003;23;20457;-88
2023/09/10 06:11:12;;;;;;;3.45;1.90;;;;;;;;;;2584336;23;20000;-87